sensor_id;sensor_type;location;lat;lon;timestamp;P1;durP1;ratioP1;P2;durP2;ratioP2
31836;SDS011;18401;49.344;6.240;2023-04-03T00:00:12;3.50;;;2.90;;
31836;SDS011;18401;49.344;6.240;2023-04-03T00:02:38;4.18;;;2.97;;
31836;SDS011;18401;49.344;6.240;2023-04-03T00:05:05;8.77;;;3.22;;
31836;SDS011;18401;49.344;6.240;2023-04-03T00:07:31;4.70;;;3.15;;
31836;SDS011;18401;49.344;6.240;2023-04-03T00:09:57;7.18;;;3.10;;
31836;SDS011;18401;49.344;6.240;2023-04-03T00:12:22;6.80;;;3.08;;
31836;SDS011;18401;49.344;6.240;2023-04-03T00:14:48;9.48;;;2.85;;
31836;SDS011;18401;49.344;6.240;2023-04-03T00:17:14;5.07;;;3.20;;
31836;SDS011;18401;49.344;6.240;2023-04-03T00:19:39;4.43;;;2.80;;
31836;SDS011;18401;49.344;6.240;2023-04-03T00:22:05;3.08;;;2.75;;
31836;SDS011;18401;49.344;6.240;2023-04-03T00:24:31;10.00;;;3.67;;
31836;SDS011;18401;49.344;6.240;2023-04-03T00:26:56;5.90;;;3.20;;
31836;SDS011;18401;49.344;6.240;2023-04-03T00:29:22;2.83;;;2.63;;
31836;SDS011;18401;49.344;6.240;2023-04-03T00:31:47;3.35;;;2.90;;
31836;SDS011;18401;49.344;6.240;2023-04-03T00:34:13;3.60;;;2.58;;
31836;SDS011;18401;49.344;6.240;2023-04-03T00:36:39;5.88;;;2.92;;
31836;SDS011;18401;49.344;6.240;2023-04-03T00:39:04;7.03;;;2.38;;
31836;SDS011;18401;49.344;6.240;2023-04-03T00:41:31;5.00;;;2.60;;
31836;SDS011;18401;49.344;6.240;2023-04-03T00:43:57;9.48;;;2.85;;
31836;SDS011;18401;49.344;6.240;2023-04-03T00:46:22;3.33;;;2.30;;
31836;SDS011;18401;49.344;6.240;2023-04-03T00:48:48;5.15;;;3.10;;
31836;SDS011;18401;49.344;6.240;2023-04-03T00:51:16;2.85;;;2.45;;
31836;SDS011;18401;49.344;6.240;2023-04-03T00:53:48;6.75;;;3.08;;
31836;SDS011;18401;49.344;6.240;2023-04-03T00:56:17;4.20;;;2.38;;
31836;SDS011;18401;49.344;6.240;2023-04-03T00:58:48;2.90;;;2.42;;
31836;SDS011;18401;49.344;6.240;2023-04-03T01:01:30;3.70;;;2.85;;
31836;SDS011;18401;49.344;6.240;2023-04-03T01:03:58;2.92;;;2.60;;
31836;SDS011;18401;49.344;6.240;2023-04-03T01:06:26;6.10;;;3.08;;
31836;SDS011;18401;49.344;6.240;2023-04-03T01:08:56;5.95;;;2.95;;
31836;SDS011;18401;49.344;6.240;2023-04-03T01:11:22;2.78;;;2.55;;
31836;SDS011;18401;49.344;6.240;2023-04-03T01:13:48;3.85;;;2.80;;
31836;SDS011;18401;49.344;6.240;2023-04-03T01:16:14;5.75;;;3.20;;
31836;SDS011;18401;49.344;6.240;2023-04-03T01:18:40;4.25;;;3.30;;
31836;SDS011;18401;49.344;6.240;2023-04-03T01:21:23;3.70;;;2.78;;
31836;SDS011;18401;49.344;6.240;2023-04-03T01:27:05;9.15;;;3.53;;
31836;SDS011;18401;49.344;6.240;2023-04-03T01:29:33;5.25;;;2.92;;
31836;SDS011;18401;49.344;6.240;2023-04-03T01:31:59;4.43;;;3.05;;
31836;SDS011;18401;49.344;6.240;2023-04-03T01:34:27;4.07;;;2.92;;
31836;SDS011;18401;49.344;6.240;2023-04-03T01:36:54;5.90;;;3.65;;
31836;SDS011;18401;49.344;6.240;2023-04-03T01:39:20;5.43;;;3.20;;
31836;SDS011;18401;49.344;6.240;2023-04-03T01:41:46;5.53;;;3.05;;
31836;SDS011;18401;49.344;6.240;2023-04-03T01:44:12;5.22;;;3.22;;
31836;SDS011;18401;49.344;6.240;2023-04-03T01:46:38;6.88;;;3.58;;
31836;SDS011;18401;49.344;6.240;2023-04-03T01:49:04;4.93;;;3.40;;
31836;SDS011;18401;49.344;6.240;2023-04-03T01:51:30;5.05;;;3.35;;
31836;SDS011;18401;49.344;6.240;2023-04-03T01:53:56;4.57;;;3.38;;
31836;SDS011;18401;49.344;6.240;2023-04-03T01:56:22;5.18;;;3.30;;
31836;SDS011;18401;49.344;6.240;2023-04-03T01:58:47;4.78;;;3.65;;
31836;SDS011;18401;49.344;6.240;2023-04-03T02:01:13;7.28;;;3.35;;
31836;SDS011;18401;49.344;6.240;2023-04-03T02:03:40;6.68;;;3.10;;
31836;SDS011;18401;49.344;6.240;2023-04-03T02:06:05;3.50;;;3.17;;
31836;SDS011;18401;49.344;6.240;2023-04-03T02:08:31;5.70;;;3.50;;
31836;SDS011;18401;49.344;6.240;2023-04-03T02:10:57;4.07;;;3.25;;
31836;SDS011;18401;49.344;6.240;2023-04-03T02:13:22;4.07;;;3.05;;
31836;SDS011;18401;49.344;6.240;2023-04-03T02:15:48;9.65;;;3.25;;
31836;SDS011;18401;49.344;6.240;2023-04-03T02:18:14;6.15;;;2.90;;
31836;SDS011;18401;49.344;6.240;2023-04-03T02:20:40;4.50;;;3.40;;
31836;SDS011;18401;49.344;6.240;2023-04-03T02:23:05;6.53;;;3.80;;
31836;SDS011;18401;49.344;6.240;2023-04-03T02:25:31;5.80;;;3.45;;
31836;SDS011;18401;49.344;6.240;2023-04-03T02:27:57;6.28;;;3.50;;
31836;SDS011;18401;49.344;6.240;2023-04-03T02:30:23;6.85;;;3.38;;
31836;SDS011;18401;49.344;6.240;2023-04-03T02:32:48;5.05;;;3.55;;
31836;SDS011;18401;49.344;6.240;2023-04-03T02:35:14;7.28;;;4.18;;
31836;SDS011;18401;49.344;6.240;2023-04-03T02:37:40;5.03;;;4.07;;
31836;SDS011;18401;49.344;6.240;2023-04-03T02:40:06;9.15;;;4.18;;
31836;SDS011;18401;49.344;6.240;2023-04-03T02:42:32;4.85;;;3.80;;
31836;SDS011;18401;49.344;6.240;2023-04-03T02:44:58;6.10;;;4.45;;
31836;SDS011;18401;49.344;6.240;2023-04-03T02:47:25;7.28;;;3.85;;
31836;SDS011;18401;49.344;6.240;2023-04-03T02:49:51;5.63;;;4.55;;
31836;SDS011;18401;49.344;6.240;2023-04-03T02:52:17;5.38;;;3.92;;
31836;SDS011;18401;49.344;6.240;2023-04-03T02:54:43;5.50;;;3.47;;
31836;SDS011;18401;49.344;6.240;2023-04-03T02:57:09;6.93;;;3.58;;
31836;SDS011;18401;49.344;6.240;2023-04-03T02:59:35;6.57;;;4.22;;
31836;SDS011;18401;49.344;6.240;2023-04-03T03:02:02;4.63;;;3.92;;
31836;SDS011;18401;49.344;6.240;2023-04-03T03:04:28;6.43;;;4.57;;
31836;SDS011;18401;49.344;6.240;2023-04-03T03:06:54;10.68;;;5.50;;
31836;SDS011;18401;49.344;6.240;2023-04-03T03:09:19;9.50;;;4.70;;
31836;SDS011;18401;49.344;6.240;2023-04-03T03:11:45;9.60;;;4.80;;
31836;SDS011;18401;49.344;6.240;2023-04-03T03:14:11;8.48;;;4.43;;
31836;SDS011;18401;49.344;6.240;2023-04-03T03:16:36;10.00;;;4.82;;
31836;SDS011;18401;49.344;6.240;2023-04-03T03:19:02;9.05;;;5.50;;
31836;SDS011;18401;49.344;6.240;2023-04-03T03:21:28;10.30;;;5.43;;
31836;SDS011;18401;49.344;6.240;2023-04-03T03:23:53;7.32;;;4.70;;
31836;SDS011;18401;49.344;6.240;2023-04-03T03:26:19;6.10;;;4.45;;
31836;SDS011;18401;49.344;6.240;2023-04-03T03:28:45;6.90;;;4.78;;
31836;SDS011;18401;49.344;6.240;2023-04-03T03:31:11;4.28;;;3.88;;
31836;SDS011;18401;49.344;6.240;2023-04-03T03:33:37;6.60;;;4.22;;
31836;SDS011;18401;49.344;6.240;2023-04-03T03:36:02;5.95;;;4.10;;
31836;SDS011;18401;49.344;6.240;2023-04-03T03:38:28;4.15;;;3.80;;
31836;SDS011;18401;49.344;6.240;2023-04-03T03:40:54;5.22;;;4.15;;
31836;SDS011;18401;49.344;6.240;2023-04-03T03:43:20;6.40;;;3.80;;
31836;SDS011;18401;49.344;6.240;2023-04-03T03:45:46;6.35;;;4.20;;
31836;SDS011;18401;49.344;6.240;2023-04-03T03:48:16;4.53;;;3.97;;
31836;SDS011;18401;49.344;6.240;2023-04-03T03:50:42;11.13;;;4.47;;
31836;SDS011;18401;49.344;6.240;2023-04-03T03:53:07;14.88;;;8.10;;
31836;SDS011;18401;49.344;6.240;2023-04-03T03:55:33;5.32;;;4.53;;
31836;SDS011;18401;49.344;6.240;2023-04-03T03:57:58;9.57;;;4.78;;
31836;SDS011;18401;49.344;6.240;2023-04-03T04:00:26;5.28;;;4.22;;
31836;SDS011;18401;49.344;6.240;2023-04-03T04:02:52;6.10;;;4.35;;
31836;SDS011;18401;49.344;6.240;2023-04-03T04:05:18;11.75;;;4.63;;
31836;SDS011;18401;49.344;6.240;2023-04-03T04:07:43;5.32;;;4.22;;
31836;SDS011;18401;49.344;6.240;2023-04-03T04:10:09;8.27;;;4.80;;
31836;SDS011;18401;49.344;6.240;2023-04-03T04:12:35;6.57;;;4.38;;
31836;SDS011;18401;49.344;6.240;2023-04-03T04:15:01;9.05;;;4.57;;
31836;SDS011;18401;49.344;6.240;2023-04-03T04:17:27;9.10;;;4.20;;
31836;SDS011;18401;49.344;6.240;2023-04-03T04:19:53;6.75;;;4.28;;
31836;SDS011;18401;49.344;6.240;2023-04-03T04:22:18;4.88;;;4.38;;
31836;SDS011;18401;49.344;6.240;2023-04-03T04:24:44;5.30;;;3.88;;
31836;SDS011;18401;49.344;6.240;2023-04-03T04:27:10;9.75;;;4.40;;
31836;SDS011;18401;49.344;6.240;2023-04-03T04:29:36;7.95;;;4.63;;
31836;SDS011;18401;49.344;6.240;2023-04-03T04:32:04;4.65;;;4.20;;
31836;SDS011;18401;49.344;6.240;2023-04-03T04:34:30;6.00;;;4.35;;
31836;SDS011;18401;49.344;6.240;2023-04-03T04:36:56;5.55;;;4.45;;
31836;SDS011;18401;49.344;6.240;2023-04-03T04:39:22;5.30;;;4.80;;
31836;SDS011;18401;49.344;6.240;2023-04-03T04:41:47;7.75;;;4.72;;
31836;SDS011;18401;49.344;6.240;2023-04-03T04:44:13;6.95;;;4.25;;
31836;SDS011;18401;49.344;6.240;2023-04-03T04:46:39;8.35;;;5.07;;
31836;SDS011;18401;49.344;6.240;2023-04-03T04:49:05;9.23;;;3.90;;
31836;SDS011;18401;49.344;6.240;2023-04-03T04:51:30;5.80;;;4.22;;
31836;SDS011;18401;49.344;6.240;2023-04-03T04:53:56;5.30;;;3.95;;
31836;SDS011;18401;49.344;6.240;2023-04-03T04:56:22;10.73;;;3.88;;
31836;SDS011;18401;49.344;6.240;2023-04-03T04:58:47;8.60;;;4.00;;
31836;SDS011;18401;49.344;6.240;2023-04-03T05:01:13;7.60;;;3.97;;
31836;SDS011;18401;49.344;6.240;2023-04-03T05:03:39;6.88;;;3.95;;
31836;SDS011;18401;49.344;6.240;2023-04-03T05:06:05;7.75;;;3.40;;
31836;SDS011;18401;49.344;6.240;2023-04-03T05:08:31;3.13;;;2.83;;
31836;SDS011;18401;49.344;6.240;2023-04-03T05:10:57;4.22;;;3.30;;
31836;SDS011;18401;49.344;6.240;2023-04-03T05:13:22;8.32;;;3.65;;
31836;SDS011;18401;49.344;6.240;2023-04-03T05:15:48;4.43;;;3.30;;
31836;SDS011;18401;49.344;6.240;2023-04-03T05:18:14;3.30;;;3.00;;
31836;SDS011;18401;49.344;6.240;2023-04-03T05:20:39;6.00;;;3.75;;
31836;SDS011;18401;49.344;6.240;2023-04-03T05:23:05;4.43;;;3.15;;
31836;SDS011;18401;49.344;6.240;2023-04-03T05:25:31;3.55;;;3.10;;
31836;SDS011;18401;49.344;6.240;2023-04-03T05:27:57;4.15;;;3.30;;
31836;SDS011;18401;49.344;6.240;2023-04-03T05:30:23;4.57;;;3.30;;
31836;SDS011;18401;49.344;6.240;2023-04-03T05:32:49;4.45;;;3.45;;
31836;SDS011;18401;49.344;6.240;2023-04-03T05:35:15;5.97;;;3.50;;
31836;SDS011;18401;49.344;6.240;2023-04-03T05:37:40;4.35;;;3.08;;
31836;SDS011;18401;49.344;6.240;2023-04-03T05:40:06;4.03;;;3.20;;
31836;SDS011;18401;49.344;6.240;2023-04-03T05:42:33;6.50;;;3.47;;
31836;SDS011;18401;49.344;6.240;2023-04-03T05:44:58;4.32;;;2.92;;
31836;SDS011;18401;49.344;6.240;2023-04-03T05:47:24;9.73;;;3.30;;
31836;SDS011;18401;49.344;6.240;2023-04-03T05:49:50;5.90;;;3.50;;
31836;SDS011;18401;49.344;6.240;2023-04-03T05:52:29;3.47;;;2.83;;
31836;SDS011;18401;49.344;6.240;2023-04-03T05:54:56;5.18;;;3.17;;
31836;SDS011;18401;49.344;6.240;2023-04-03T05:57:22;4.88;;;3.08;;
31836;SDS011;18401;49.344;6.240;2023-04-03T05:59:48;9.20;;;3.10;;
31836;SDS011;18401;49.344;6.240;2023-04-03T06:02:16;7.07;;;3.17;;
31836;SDS011;18401;49.344;6.240;2023-04-03T06:04:43;6.75;;;2.95;;
31836;SDS011;18401;49.344;6.240;2023-04-03T06:07:13;4.53;;;3.00;;
31836;SDS011;18401;49.344;6.240;2023-04-03T06:09:41;3.25;;;2.95;;
31836;SDS011;18401;49.344;6.240;2023-04-03T06:12:07;6.70;;;3.40;;
31836;SDS011;18401;49.344;6.240;2023-04-03T06:14:33;5.60;;;3.47;;
31836;SDS011;18401;49.344;6.240;2023-04-03T06:16:59;6.43;;;3.40;;
31836;SDS011;18401;49.344;6.240;2023-04-03T06:19:25;3.88;;;2.60;;
31836;SDS011;18401;49.344;6.240;2023-04-03T06:21:51;8.65;;;4.40;;
31836;SDS011;18401;49.344;6.240;2023-04-03T06:24:17;7.60;;;3.60;;
31836;SDS011;18401;49.344;6.240;2023-04-03T06:26:43;4.18;;;3.38;;
31836;SDS011;18401;49.344;6.240;2023-04-03T06:29:09;7.63;;;3.47;;
31836;SDS011;18401;49.344;6.240;2023-04-03T06:31:35;5.30;;;3.80;;
31836;SDS011;18401;49.344;6.240;2023-04-03T06:34:03;9.05;;;3.13;;
31836;SDS011;18401;49.344;6.240;2023-04-03T06:36:30;7.03;;;3.83;;
31836;SDS011;18401;49.344;6.240;2023-04-03T06:38:56;6.90;;;3.42;;
31836;SDS011;18401;49.344;6.240;2023-04-03T06:41:22;9.27;;;3.45;;
31836;SDS011;18401;49.344;6.240;2023-04-03T06:43:48;5.63;;;3.58;;
31836;SDS011;18401;49.344;6.240;2023-04-03T06:46:15;4.93;;;2.90;;
31836;SDS011;18401;49.344;6.240;2023-04-03T06:48:43;7.25;;;3.67;;
31836;SDS011;18401;49.344;6.240;2023-04-03T06:51:19;7.57;;;3.30;;
31836;SDS011;18401;49.344;6.240;2023-04-03T06:53:50;9.30;;;4.13;;
31836;SDS011;18401;49.344;6.240;2023-04-03T06:56:17;12.18;;;5.45;;
31836;SDS011;18401;49.344;6.240;2023-04-03T06:58:43;7.50;;;2.92;;
31836;SDS011;18401;49.344;6.240;2023-04-03T07:01:10;9.88;;;3.72;;
31836;SDS011;18401;49.344;6.240;2023-04-03T07:03:37;11.20;;;4.40;;
31836;SDS011;18401;49.344;6.240;2023-04-03T07:06:04;6.10;;;3.88;;
31836;SDS011;18401;49.344;6.240;2023-04-03T07:08:31;4.18;;;2.47;;
31836;SDS011;18401;49.344;6.240;2023-04-03T07:10:58;3.33;;;2.50;;
31836;SDS011;18401;49.344;6.240;2023-04-03T07:13:24;3.88;;;2.53;;
31836;SDS011;18401;49.344;6.240;2023-04-03T07:15:50;7.15;;;3.17;;
31836;SDS011;18401;49.344;6.240;2023-04-03T07:18:16;7.72;;;2.72;;
31836;SDS011;18401;49.344;6.240;2023-04-03T07:20:44;5.25;;;2.70;;
31836;SDS011;18401;49.344;6.240;2023-04-03T07:23:10;7.13;;;2.75;;
31836;SDS011;18401;49.344;6.240;2023-04-03T07:25:36;8.45;;;3.20;;
31836;SDS011;18401;49.344;6.240;2023-04-03T07:28:07;5.40;;;2.83;;
31836;SDS011;18401;49.344;6.240;2023-04-03T07:30:33;12.90;;;4.13;;
31836;SDS011;18401;49.344;6.240;2023-04-03T07:32:58;10.52;;;3.85;;
31836;SDS011;18401;49.344;6.240;2023-04-03T07:35:24;12.93;;;4.60;;
31836;SDS011;18401;49.344;6.240;2023-04-03T07:37:50;7.18;;;2.65;;
31836;SDS011;18401;49.344;6.240;2023-04-03T07:40:16;4.60;;;2.70;;
31836;SDS011;18401;49.344;6.240;2023-04-03T07:42:41;2.67;;;2.30;;
31836;SDS011;18401;49.344;6.240;2023-04-03T07:45:07;4.13;;;2.50;;
31836;SDS011;18401;49.344;6.240;2023-04-03T07:47:33;4.90;;;2.80;;
31836;SDS011;18401;49.344;6.240;2023-04-03T07:49:59;2.33;;;1.90;;
31836;SDS011;18401;49.344;6.240;2023-04-03T07:52:24;3.45;;;1.95;;
31836;SDS011;18401;49.344;6.240;2023-04-03T07:54:50;4.18;;;2.05;;
31836;SDS011;18401;49.344;6.240;2023-04-03T07:57:16;2.70;;;1.98;;
31836;SDS011;18401;49.344;6.240;2023-04-03T07:59:42;5.65;;;2.00;;
31836;SDS011;18401;49.344;6.240;2023-04-03T08:02:11;2.60;;;1.95;;
31836;SDS011;18401;49.344;6.240;2023-04-03T08:04:37;5.20;;;1.90;;
31836;SDS011;18401;49.344;6.240;2023-04-03T08:07:02;3.08;;;1.83;;
31836;SDS011;18401;49.344;6.240;2023-04-03T08:09:28;3.10;;;2.03;;
31836;SDS011;18401;49.344;6.240;2023-04-03T08:11:54;2.92;;;1.80;;
31836;SDS011;18401;49.344;6.240;2023-04-03T08:14:20;2.97;;;2.05;;
31836;SDS011;18401;49.344;6.240;2023-04-03T08:16:46;4.68;;;1.90;;
31836;SDS011;18401;49.344;6.240;2023-04-03T08:19:13;4.82;;;1.98;;
31836;SDS011;18401;49.344;6.240;2023-04-03T08:21:40;3.55;;;1.98;;
31836;SDS011;18401;49.344;6.240;2023-04-03T08:24:09;2.95;;;2.00;;
31836;SDS011;18401;49.344;6.240;2023-04-03T08:26:35;2.60;;;2.20;;
31836;SDS011;18401;49.344;6.240;2023-04-03T08:29:00;3.67;;;1.90;;
31836;SDS011;18401;49.344;6.240;2023-04-03T08:31:26;8.00;;;1.83;;
31836;SDS011;18401;49.344;6.240;2023-04-03T08:33:52;2.78;;;1.70;;
31836;SDS011;18401;49.344;6.240;2023-04-03T08:36:22;5.65;;;2.10;;
31836;SDS011;18401;49.344;6.240;2023-04-03T08:38:50;2.65;;;1.70;;
31836;SDS011;18401;49.344;6.240;2023-04-03T08:49:27;3.17;;;1.60;;
31836;SDS011;18401;49.344;6.240;2023-04-03T08:52:11;4.75;;;1.75;;
31836;SDS011;18401;49.344;6.240;2023-04-03T08:54:48;5.60;;;1.75;;
31836;SDS011;18401;49.344;6.240;2023-04-03T08:57:29;3.17;;;1.80;;
31836;SDS011;18401;49.344;6.240;2023-04-03T09:00:15;4.70;;;2.00;;
31836;SDS011;18401;49.344;6.240;2023-04-03T09:02:45;3.42;;;1.90;;
31836;SDS011;18401;49.344;6.240;2023-04-03T09:05:17;3.63;;;1.50;;
31836;SDS011;18401;49.344;6.240;2023-04-03T09:10:35;1.90;;;1.65;;
31836;SDS011;18401;49.344;6.240;2023-04-03T09:15:53;4.72;;;1.42;;
31836;SDS011;18401;49.344;6.240;2023-04-03T09:18:26;4.13;;;1.70;;
31836;SDS011;18401;49.344;6.240;2023-04-03T09:23:48;2.20;;;1.67;;
31836;SDS011;18401;49.344;6.240;2023-04-03T09:26:17;4.13;;;1.83;;
31836;SDS011;18401;49.344;6.240;2023-04-03T09:28:44;4.95;;;2.33;;
31836;SDS011;18401;49.344;6.240;2023-04-03T09:33:48;3.47;;;1.40;;
31836;SDS011;18401;49.344;6.240;2023-04-03T09:39:16;3.78;;;1.80;;
31836;SDS011;18401;49.344;6.240;2023-04-03T09:42:18;3.35;;;1.70;;
31836;SDS011;18401;49.344;6.240;2023-04-03T09:52:43;4.18;;;1.75;;
31836;SDS011;18401;49.344;6.240;2023-04-03T09:55:24;4.07;;;2.08;;
31836;SDS011;18401;49.344;6.240;2023-04-03T09:57:55;4.00;;;1.92;;
31836;SDS011;18401;49.344;6.240;2023-04-03T10:00:28;2.13;;;1.40;;
31836;SDS011;18401;49.344;6.240;2023-04-03T10:03:03;3.03;;;1.50;;
31836;SDS011;18401;49.344;6.240;2023-04-03T10:05:36;3.80;;;1.45;;
31836;SDS011;18401;49.344;6.240;2023-04-03T10:10:38;3.53;;;1.77;;
31836;SDS011;18401;49.344;6.240;2023-04-03T10:13:12;2.20;;;1.33;;
31836;SDS011;18401;49.344;6.240;2023-04-03T10:15:43;5.68;;;1.77;;
31836;SDS011;18401;49.344;6.240;2023-04-03T10:18:45;4.32;;;1.50;;
31836;SDS011;18401;49.344;6.240;2023-04-03T10:27:31;3.85;;;1.23;;
31836;SDS011;18401;49.344;6.240;2023-04-03T10:32:51;2.33;;;1.50;;
31836;SDS011;18401;49.344;6.240;2023-04-03T10:38:38;4.13;;;1.40;;
31836;SDS011;18401;49.344;6.240;2023-04-03T10:41:42;1.75;;;1.33;;
31836;SDS011;18401;49.344;6.240;2023-04-03T10:44:16;1.67;;;1.20;;
31836;SDS011;18401;49.344;6.240;2023-04-03T10:46:53;3.50;;;1.90;;
31836;SDS011;18401;49.344;6.240;2023-04-03T10:52:17;3.85;;;1.50;;
31836;SDS011;18401;49.344;6.240;2023-04-03T10:54:50;1.85;;;1.45;;
31836;SDS011;18401;49.344;6.240;2023-04-03T10:57:19;3.95;;;1.60;;
31836;SDS011;18401;49.344;6.240;2023-04-03T10:59:53;2.28;;;1.10;;
31836;SDS011;18401;49.344;6.240;2023-04-03T11:02:28;2.17;;;1.20;;
31836;SDS011;18401;49.344;6.240;2023-04-03T11:07:36;2.65;;;1.40;;
31836;SDS011;18401;49.344;6.240;2023-04-03T11:10:20;4.60;;;1.23;;
31836;SDS011;18401;49.344;6.240;2023-04-03T11:12:56;2.33;;;1.10;;
31836;SDS011;18401;49.344;6.240;2023-04-03T11:15:31;2.17;;;1.38;;
31836;SDS011;18401;49.344;6.240;2023-04-03T11:17:59;2.67;;;1.58;;
31836;SDS011;18401;49.344;6.240;2023-04-03T11:20:32;3.30;;;1.10;;
31836;SDS011;18401;49.344;6.240;2023-04-03T11:25:53;1.17;;;1.08;;
31836;SDS011;18401;49.344;6.240;2023-04-03T11:28:23;5.03;;;1.42;;
31836;SDS011;18401;49.344;6.240;2023-04-03T11:33:59;3.08;;;1.30;;
31836;SDS011;18401;49.344;6.240;2023-04-03T11:36:40;2.45;;;1.20;;
31836;SDS011;18401;49.344;6.240;2023-04-03T11:39:22;2.42;;;1.17;;
31836;SDS011;18401;49.344;6.240;2023-04-03T11:41:50;2.28;;;1.20;;
31836;SDS011;18401;49.344;6.240;2023-04-03T11:44:35;4.88;;;1.30;;
31836;SDS011;18401;49.344;6.240;2023-04-03T11:47:03;3.92;;;1.40;;
31836;SDS011;18401;49.344;6.240;2023-04-03T12:13:34;3.97;;;1.37;;
31836;SDS011;18401;49.344;6.240;2023-04-03T12:16:05;4.35;;;1.50;;
31836;SDS011;18401;49.344;6.240;2023-04-03T12:18:48;3.65;;;1.42;;
31836;SDS011;18401;49.344;6.240;2023-04-03T12:26:41;2.78;;;1.13;;
31836;SDS011;18401;49.344;6.240;2023-04-03T12:37:43;2.78;;;1.30;;
31836;SDS011;18401;49.344;6.240;2023-04-03T12:48:53;3.22;;;1.13;;
31836;SDS011;18401;49.344;6.240;2023-04-03T12:51:22;2.80;;;1.33;;
31836;SDS011;18401;49.344;6.240;2023-04-03T12:54:27;2.67;;;1.20;;
31836;SDS011;18401;49.344;6.240;2023-04-03T12:57:16;1.27;;;1.17;;
31836;SDS011;18401;49.344;6.240;2023-04-03T12:59:44;2.22;;;1.02;;
31836;SDS011;18401;49.344;6.240;2023-04-03T13:02:17;4.93;;;1.35;;
31836;SDS011;18401;49.344;6.240;2023-04-03T13:04:48;2.63;;;1.27;;
31836;SDS011;18401;49.344;6.240;2023-04-03T13:07:24;3.22;;;1.40;;
31836;SDS011;18401;49.344;6.240;2023-04-03T13:10:03;3.55;;;1.02;;
31836;SDS011;18401;49.344;6.240;2023-04-03T13:12:44;0.77;;;0.70;;
31836;SDS011;18401;49.344;6.240;2023-04-03T13:15:15;1.42;;;0.90;;
31836;SDS011;18401;49.344;6.240;2023-04-03T13:17:43;4.43;;;1.13;;
31836;SDS011;18401;49.344;6.240;2023-04-03T13:20:19;1.23;;;1.02;;
31836;SDS011;18401;49.344;6.240;2023-04-03T13:25:20;4.03;;;1.20;;
31836;SDS011;18401;49.344;6.240;2023-04-03T13:27:47;1.60;;;1.00;;
31836;SDS011;18401;49.344;6.240;2023-04-03T13:30:25;1.58;;;1.10;;
31836;SDS011;18401;49.344;6.240;2023-04-03T13:32:54;2.78;;;1.17;;
31836;SDS011;18401;49.344;6.240;2023-04-03T13:35:40;10.32;;;1.35;;
31836;SDS011;18401;49.344;6.240;2023-04-03T13:40:55;1.95;;;1.17;;
31836;SDS011;18401;49.344;6.240;2023-04-03T13:43:28;5.18;;;0.98;;
31836;SDS011;18401;49.344;6.240;2023-04-03T13:48:48;3.08;;;0.95;;
31836;SDS011;18401;49.344;6.240;2023-04-03T13:51:17;5.13;;;1.33;;
31836;SDS011;18401;49.344;6.240;2023-04-03T13:53:55;3.65;;;1.10;;
31836;SDS011;18401;49.344;6.240;2023-04-03T13:58:59;4.53;;;1.20;;
31836;SDS011;18401;49.344;6.240;2023-04-03T14:01:42;3.47;;;0.90;;
31836;SDS011;18401;49.344;6.240;2023-04-03T14:04:20;1.95;;;0.98;;
31836;SDS011;18401;49.344;6.240;2023-04-03T14:06:53;1.67;;;1.02;;
31836;SDS011;18401;49.344;6.240;2023-04-03T14:09:20;2.45;;;0.93;;
31836;SDS011;18401;49.344;6.240;2023-04-03T14:11:48;0.80;;;0.80;;
31836;SDS011;18401;49.344;6.240;2023-04-03T14:14:17;2.95;;;1.40;;
31836;SDS011;18401;49.344;6.240;2023-04-03T14:16:46;2.25;;;0.88;;
31836;SDS011;18401;49.344;6.240;2023-04-03T14:19:24;3.63;;;0.98;;
31836;SDS011;18401;49.344;6.240;2023-04-03T14:21:50;6.47;;;1.33;;
31836;SDS011;18401;49.344;6.240;2023-04-03T14:24:18;3.15;;;1.38;;
31836;SDS011;18401;49.344;6.240;2023-04-03T14:26:44;2.97;;;0.90;;
31836;SDS011;18401;49.344;6.240;2023-04-03T14:29:11;2.75;;;1.25;;
31836;SDS011;18401;49.344;6.240;2023-04-03T14:31:38;4.18;;;1.10;;
31836;SDS011;18401;49.344;6.240;2023-04-03T14:34:05;4.53;;;1.40;;
31836;SDS011;18401;49.344;6.240;2023-04-03T14:36:31;1.92;;;0.90;;
31836;SDS011;18401;49.344;6.240;2023-04-03T14:38:58;1.35;;;1.10;;
31836;SDS011;18401;49.344;6.240;2023-04-03T14:41:25;7.03;;;1.10;;
31836;SDS011;18401;49.344;6.240;2023-04-03T14:43:53;2.03;;;1.10;;
31836;SDS011;18401;49.344;6.240;2023-04-03T14:46:24;3.60;;;1.35;;
31836;SDS011;18401;49.344;6.240;2023-04-03T14:48:53;3.50;;;1.07;;
31836;SDS011;18401;49.344;6.240;2023-04-03T14:51:19;10.32;;;1.30;;
31836;SDS011;18401;49.344;6.240;2023-04-03T14:53:45;2.45;;;0.98;;
31836;SDS011;18401;49.344;6.240;2023-04-03T14:56:21;0.80;;;0.70;;
31836;SDS011;18401;49.344;6.240;2023-04-03T14:58:51;2.60;;;0.95;;
31836;SDS011;18401;49.344;6.240;2023-04-03T15:01:21;8.70;;;1.02;;
31836;SDS011;18401;49.344;6.240;2023-04-03T15:03:47;1.90;;;1.13;;
31836;SDS011;18401;49.344;6.240;2023-04-03T15:06:13;7.53;;;1.20;;
31836;SDS011;18401;49.344;6.240;2023-04-03T15:08:40;4.28;;;1.75;;
31836;SDS011;18401;49.344;6.240;2023-04-03T15:11:08;1.35;;;1.10;;
31836;SDS011;18401;49.344;6.240;2023-04-03T15:13:35;3.80;;;1.23;;
31836;SDS011;18401;49.344;6.240;2023-04-03T15:16:01;3.72;;;1.00;;
31836;SDS011;18401;49.344;6.240;2023-04-03T15:18:27;3.60;;;1.10;;
31836;SDS011;18401;49.344;6.240;2023-04-03T15:21:02;2.05;;;1.02;;
31836;SDS011;18401;49.344;6.240;2023-04-03T15:23:29;2.30;;;1.00;;
31836;SDS011;18401;49.344;6.240;2023-04-03T15:25:55;1.58;;;1.10;;
31836;SDS011;18401;49.344;6.240;2023-04-03T15:28:22;5.25;;;1.10;;
31836;SDS011;18401;49.344;6.240;2023-04-03T15:30:48;8.38;;;1.10;;
31836;SDS011;18401;49.344;6.240;2023-04-03T15:33:15;1.23;;;1.05;;
31836;SDS011;18401;49.344;6.240;2023-04-03T15:35:41;2.88;;;1.30;;
31836;SDS011;18401;49.344;6.240;2023-04-03T15:38:07;1.73;;;0.98;;
31836;SDS011;18401;49.344;6.240;2023-04-03T15:40:33;1.33;;;0.80;;
31836;SDS011;18401;49.344;6.240;2023-04-03T15:42:59;2.47;;;1.20;;
31836;SDS011;18401;49.344;6.240;2023-04-03T15:45:25;1.70;;;1.30;;
31836;SDS011;18401;49.344;6.240;2023-04-03T15:47:54;2.45;;;1.40;;
31836;SDS011;18401;49.344;6.240;2023-04-03T15:50:19;3.55;;;1.48;;
31836;SDS011;18401;49.344;6.240;2023-04-03T15:52:47;3.03;;;1.40;;
31836;SDS011;18401;49.344;6.240;2023-04-03T15:55:16;3.25;;;1.25;;
31836;SDS011;18401;49.344;6.240;2023-04-03T15:57:42;2.85;;;1.35;;
31836;SDS011;18401;49.344;6.240;2023-04-03T16:00:07;2.90;;;1.40;;
31836;SDS011;18401;49.344;6.240;2023-04-03T16:02:33;2.22;;;1.40;;
31836;SDS011;18401;49.344;6.240;2023-04-03T16:04:59;4.03;;;1.58;;
31836;SDS011;18401;49.344;6.240;2023-04-03T16:07:25;3.00;;;1.33;;
31836;SDS011;18401;49.344;6.240;2023-04-03T16:09:51;2.05;;;1.25;;
31836;SDS011;18401;49.344;6.240;2023-04-03T16:12:17;4.03;;;1.55;;
31836;SDS011;18401;49.344;6.240;2023-04-03T16:14:43;2.40;;;1.30;;
31836;SDS011;18401;49.344;6.240;2023-04-03T16:17:08;2.97;;;1.33;;
31836;SDS011;18401;49.344;6.240;2023-04-03T16:19:34;4.20;;;1.30;;
31836;SDS011;18401;49.344;6.240;2023-04-03T16:22:00;4.03;;;1.33;;
31836;SDS011;18401;49.344;6.240;2023-04-03T16:24:26;2.97;;;1.63;;
31836;SDS011;18401;49.344;6.240;2023-04-03T16:26:52;3.50;;;1.60;;
31836;SDS011;18401;49.344;6.240;2023-04-03T16:29:18;4.43;;;1.48;;
31836;SDS011;18401;49.344;6.240;2023-04-03T16:31:44;3.55;;;1.73;;
31836;SDS011;18401;49.344;6.240;2023-04-03T16:34:09;2.53;;;1.48;;
31836;SDS011;18401;49.344;6.240;2023-04-03T16:36:36;3.00;;;1.55;;
31836;SDS011;18401;49.344;6.240;2023-04-03T16:39:02;3.65;;;1.38;;
31836;SDS011;18401;49.344;6.240;2023-04-03T16:41:28;6.03;;;1.40;;
31836;SDS011;18401;49.344;6.240;2023-04-03T16:43:54;1.70;;;1.52;;
31836;SDS011;18401;49.344;6.240;2023-04-03T16:46:20;5.25;;;1.45;;
31836;SDS011;18401;49.344;6.240;2023-04-03T16:48:45;5.10;;;1.50;;
31836;SDS011;18401;49.344;6.240;2023-04-03T16:51:12;5.47;;;1.25;;